Keswick, VA

6:48 PM EST on November 20, 2014 (GMT -0500)
Stony Point | Change Station
CLOSE
Current Station
Personal Weather Station
Location: Keswick, VA
Elevation: 640 ft
Nearby Weather Stations

Elev 640 ft 38.11 °N, 78.34 °W | Updated 258 days ago

Clear
Clear
36 °F
Feels Like 30 °F
N
7
Wind Variable Wind from West
Gusts 8 mph

Today
High -- | Low -- °F
--% Chance of Precip.
Yesterday
High -- | Low -- °F
Precip. -- in
6:59 AM 4:58 PM
Waning Crescent, 3% visible
Pressure 29.97 in
Visibility 10.0 miles
Clouds Clear
Windchill 30 °F
Dew Point 19 °F
Humidity 48%
Rainfall 0.07 in
Snow Depth Not available.
UV 0 out of 12
Pollen .10 out of 12
Air Quality Not available.
Flu Activity Not available.
METAR KCHO 202253Z VRB03KT 10SM CLR 09/M11 A2997 RMK AO2 SLP149 T00891106

More Conditions Fewer Conditions

Pressure 29.97 in
Visibility 10.0 miles
Clouds Clear
Windchill 30 °F
Dew Point 19 °F
Humidity 48%
Rainfall 0.07 in
Snow Depth Not available.
UV 0 out of 12
Pollen .10 out of 12
Air Quality Not available.
Flu Activity Not available.
METAR KCHO 202253Z VRB03KT 10SM CLR 09/M11 A2997 RMK AO2 SLP149 T00891106

More Conditions Fewer Conditions

10-Day Weather Forecast

Almanac

Astronomy

Nov. 20, 2014 Rise Set
Actual Time
Civil Twilight
Nautical Twilight
Astronomical Twilight
Moon
Length of Visible Light
Length of Day
Tomorrow will be .
, % of the Moon is Illuminated

Today's Extremes

State Highs State Lows

Community

WunderPhotos

Upload Photos

1,772,553 photos uploaded!

WunderBlogs® & News

Nearby

Air Quality

  Air Quality AQ Index Pollutant
Not available.

Snow Depth

Station Depth Elevation

Earthquake Activity

City Distance Mag. Time & Date
Minimum magnitude displayed is 2.5.

Coastal Water Temperatures

Place Temperature

Nearby Weather Stations